sensor_id;sensor_type;location;lat;lon;timestamp;P1;durP1;ratioP1;P2;durP2;ratioP2
24279;SDS011;12395;42.808;23.408;2023-06-10T00:01:24;7.00;;;4.13;;
24279;SDS011;12395;42.808;23.408;2023-06-10T00:03:50;5.75;;;4.20;;
24279;SDS011;12395;42.808;23.408;2023-06-10T00:06:16;7.40;;;4.25;;
24279;SDS011;12395;42.808;23.408;2023-06-10T00:08:42;6.47;;;4.30;;
24279;SDS011;12395;42.808;23.408;2023-06-10T00:11:07;6.43;;;4.00;;
24279;SDS011;12395;42.808;23.408;2023-06-10T00:13:33;7.07;;;4.50;;
24279;SDS011;12395;42.808;23.408;2023-06-10T00:15:58;6.53;;;4.00;;
24279;SDS011;12395;42.808;23.408;2023-06-10T00:18:23;5.50;;;3.90;;
24279;SDS011;12395;42.808;23.408;2023-06-10T00:20:51;6.80;;;4.40;;
24279;SDS011;12395;42.808;23.408;2023-06-10T00:23:18;7.50;;;4.50;;
24279;SDS011;12395;42.808;23.408;2023-06-10T00:25:43;9.23;;;5.20;;
24279;SDS011;12395;42.808;23.408;2023-06-10T00:28:09;6.43;;;4.25;;
24279;SDS011;12395;42.808;23.408;2023-06-10T00:30:34;8.13;;;5.07;;
24279;SDS011;12395;42.808;23.408;2023-06-10T00:33:00;7.22;;;4.80;;
24279;SDS011;12395;42.808;23.408;2023-06-10T00:35:25;9.95;;;5.07;;
24279;SDS011;12395;42.808;23.408;2023-06-10T00:37:50;7.78;;;5.00;;
24279;SDS011;12395;42.808;23.408;2023-06-10T00:40:16;9.15;;;5.18;;
24279;SDS011;12395;42.808;23.408;2023-06-10T00:42:42;8.73;;;5.35;;
24279;SDS011;12395;42.808;23.408;2023-06-10T00:45:07;9.77;;;5.32;;
24279;SDS011;12395;42.808;23.408;2023-06-10T00:47:33;9.68;;;5.40;;
24279;SDS011;12395;42.808;23.408;2023-06-10T00:50:00;10.07;;;6.07;;
24279;SDS011;12395;42.808;23.408;2023-06-10T00:52:28;11.23;;;6.43;;
24279;SDS011;12395;42.808;23.408;2023-06-10T00:54:55;11.40;;;6.10;;
24279;SDS011;12395;42.808;23.408;2023-06-10T00:57:21;11.15;;;6.22;;
24279;SDS011;12395;42.808;23.408;2023-06-10T00:59:47;9.48;;;5.78;;
24279;SDS011;12395;42.808;23.408;2023-06-10T01:02:13;10.75;;;5.97;;
24279;SDS011;12395;42.808;23.408;2023-06-10T01:04:39;9.93;;;6.03;;
24279;SDS011;12395;42.808;23.408;2023-06-10T01:09:46;9.32;;;5.72;;
24279;SDS011;12395;42.808;23.408;2023-06-10T01:12:24;10.63;;;5.90;;
24279;SDS011;12395;42.808;23.408;2023-06-10T01:14:59;9.80;;;6.47;;
24279;SDS011;12395;42.808;23.408;2023-06-10T01:17:25;10.05;;;6.03;;
24279;SDS011;12395;42.808;23.408;2023-06-10T01:19:55;9.23;;;6.15;;
24279;SDS011;12395;42.808;23.408;2023-06-10T01:22:23;10.95;;;6.40;;
24279;SDS011;12395;42.808;23.408;2023-06-10T01:24:50;10.88;;;6.03;;
24279;SDS011;12395;42.808;23.408;2023-06-10T01:27:16;11.68;;;6.32;;
24279;SDS011;12395;42.808;23.408;2023-06-10T01:29:49;9.60;;;6.05;;
24279;SDS011;12395;42.808;23.408;2023-06-10T01:32:26;8.75;;;5.80;;
24279;SDS011;12395;42.808;23.408;2023-06-10T01:34:56;9.07;;;5.50;;
24279;SDS011;12395;42.808;23.408;2023-06-10T01:37:22;10.23;;;6.38;;
24279;SDS011;12395;42.808;23.408;2023-06-10T01:39:51;10.85;;;6.15;;
24279;SDS011;12395;42.808;23.408;2023-06-10T01:42:19;9.45;;;6.05;;
24279;SDS011;12395;42.808;23.408;2023-06-10T01:44:46;10.93;;;6.10;;
24279;SDS011;12395;42.808;23.408;2023-06-10T01:47:11;9.25;;;5.90;;
24279;SDS011;12395;42.808;23.408;2023-06-10T01:49:37;13.30;;;6.82;;
24279;SDS011;12395;42.808;23.408;2023-06-10T01:52:02;11.38;;;6.43;;
24279;SDS011;12395;42.808;23.408;2023-06-10T01:54:28;9.70;;;6.80;;
24279;SDS011;12395;42.808;23.408;2023-06-10T01:56:54;12.05;;;6.90;;
24279;SDS011;12395;42.808;23.408;2023-06-10T01:59:19;10.75;;;6.40;;
24279;SDS011;12395;42.808;23.408;2023-06-10T02:01:44;12.13;;;6.57;;
24279;SDS011;12395;42.808;23.408;2023-06-10T02:04:10;10.93;;;6.65;;
24279;SDS011;12395;42.808;23.408;2023-06-10T02:06:35;13.88;;;7.53;;
24279;SDS011;12395;42.808;23.408;2023-06-10T02:09:02;10.25;;;7.13;;
24279;SDS011;12395;42.808;23.408;2023-06-10T02:11:28;12.63;;;7.50;;
24279;SDS011;12395;42.808;23.408;2023-06-10T02:13:53;11.00;;;7.63;;
24279;SDS011;12395;42.808;23.408;2023-06-10T02:16:19;11.90;;;7.60;;
24279;SDS011;12395;42.808;23.408;2023-06-10T02:18:46;12.40;;;8.20;;
24279;SDS011;12395;42.808;23.408;2023-06-10T02:21:13;14.63;;;8.25;;
24279;SDS011;12395;42.808;23.408;2023-06-10T02:23:38;13.93;;;8.18;;
24279;SDS011;12395;42.808;23.408;2023-06-10T02:26:05;13.55;;;8.63;;
24279;SDS011;12395;42.808;23.408;2023-06-10T02:28:30;13.20;;;7.95;;
24279;SDS011;12395;42.808;23.408;2023-06-10T02:30:56;12.05;;;7.82;;
24279;SDS011;12395;42.808;23.408;2023-06-10T02:33:22;13.85;;;7.95;;
24279;SDS011;12395;42.808;23.408;2023-06-10T02:35:48;13.65;;;7.72;;
24279;SDS011;12395;42.808;23.408;2023-06-10T02:38:13;11.63;;;7.85;;
24279;SDS011;12395;42.808;23.408;2023-06-10T02:40:39;13.73;;;7.53;;
24279;SDS011;12395;42.808;23.408;2023-06-10T02:43:04;11.43;;;8.02;;
24279;SDS011;12395;42.808;23.408;2023-06-10T02:45:30;14.38;;;8.40;;
24279;SDS011;12395;42.808;23.408;2023-06-10T02:47:55;13.73;;;7.90;;
24279;SDS011;12395;42.808;23.408;2023-06-10T02:50:20;13.65;;;7.72;;
24279;SDS011;12395;42.808;23.408;2023-06-10T02:52:46;11.98;;;7.80;;
24279;SDS011;12395;42.808;23.408;2023-06-10T02:55:12;11.88;;;7.75;;
24279;SDS011;12395;42.808;23.408;2023-06-10T02:57:37;11.05;;;7.47;;
24279;SDS011;12395;42.808;23.408;2023-06-10T03:00:03;12.20;;;7.22;;
24279;SDS011;12395;42.808;23.408;2023-06-10T03:02:34;12.30;;;6.85;;
24279;SDS011;12395;42.808;23.408;2023-06-10T03:05:03;11.23;;;7.35;;
24279;SDS011;12395;42.808;23.408;2023-06-10T03:07:30;10.43;;;6.78;;
24279;SDS011;12395;42.808;23.408;2023-06-10T03:09:56;9.05;;;6.22;;
24279;SDS011;12395;42.808;23.408;2023-06-10T03:12:21;12.73;;;6.40;;
24279;SDS011;12395;42.808;23.408;2023-06-10T03:14:46;9.38;;;6.22;;
24279;SDS011;12395;42.808;23.408;2023-06-10T03:17:12;9.77;;;6.22;;
24279;SDS011;12395;42.808;23.408;2023-06-10T03:19:37;9.88;;;6.00;;
24279;SDS011;12395;42.808;23.408;2023-06-10T03:22:07;9.52;;;5.70;;
24279;SDS011;12395;42.808;23.408;2023-06-10T03:24:34;9.77;;;5.65;;
24279;SDS011;12395;42.808;23.408;2023-06-10T03:27:00;7.97;;;5.60;;
24279;SDS011;12395;42.808;23.408;2023-06-10T03:29:27;9.50;;;6.07;;
24279;SDS011;12395;42.808;23.408;2023-06-10T03:31:52;10.85;;;6.22;;
24279;SDS011;12395;42.808;23.408;2023-06-10T03:34:17;8.50;;;5.95;;
24279;SDS011;12395;42.808;23.408;2023-06-10T03:36:44;10.18;;;5.80;;
24279;SDS011;12395;42.808;23.408;2023-06-10T03:39:09;9.68;;;5.55;;
24279;SDS011;12395;42.808;23.408;2023-06-10T03:41:35;8.43;;;5.53;;
24279;SDS011;12395;42.808;23.408;2023-06-10T03:44:00;9.38;;;6.07;;
24279;SDS011;12395;42.808;23.408;2023-06-10T03:46:26;9.48;;;6.20;;
24279;SDS011;12395;42.808;23.408;2023-06-10T03:48:51;10.60;;;6.20;;
24279;SDS011;12395;42.808;23.408;2023-06-10T03:51:17;9.02;;;6.15;;
24279;SDS011;12395;42.808;23.408;2023-06-10T03:53:42;10.00;;;5.80;;
24279;SDS011;12395;42.808;23.408;2023-06-10T03:56:07;8.30;;;5.85;;
24279;SDS011;12395;42.808;23.408;2023-06-10T03:58:33;8.10;;;5.57;;
24279;SDS011;12395;42.808;23.408;2023-06-10T04:00:58;8.27;;;5.50;;
24279;SDS011;12395;42.808;23.408;2023-06-10T04:03:24;7.30;;;5.20;;
24279;SDS011;12395;42.808;23.408;2023-06-10T04:05:49;10.15;;;5.43;;
24279;SDS011;12395;42.808;23.408;2023-06-10T04:08:15;10.07;;;5.40;;
24279;SDS011;12395;42.808;23.408;2023-06-10T04:10:40;8.52;;;5.80;;
24279;SDS011;12395;42.808;23.408;2023-06-10T04:13:06;8.68;;;5.68;;
24279;SDS011;12395;42.808;23.408;2023-06-10T04:15:31;7.93;;;5.15;;
24279;SDS011;12395;42.808;23.408;2023-06-10T04:17:59;9.40;;;5.95;;
24279;SDS011;12395;42.808;23.408;2023-06-10T04:20:26;8.52;;;5.53;;
24279;SDS011;12395;42.808;23.408;2023-06-10T04:22:52;9.40;;;5.10;;
24279;SDS011;12395;42.808;23.408;2023-06-10T04:25:17;8.63;;;5.20;;
24279;SDS011;12395;42.808;23.408;2023-06-10T04:27:43;8.32;;;5.18;;
24279;SDS011;12395;42.808;23.408;2023-06-10T04:30:09;7.07;;;4.68;;
24279;SDS011;12395;42.808;23.408;2023-06-10T04:32:34;7.82;;;4.63;;
24279;SDS011;12395;42.808;23.408;2023-06-10T04:35:00;7.72;;;4.38;;
24279;SDS011;12395;42.808;23.408;2023-06-10T04:37:26;6.88;;;4.05;;
24279;SDS011;12395;42.808;23.408;2023-06-10T04:39:51;6.82;;;4.03;;
24279;SDS011;12395;42.808;23.408;2023-06-10T04:42:16;6.35;;;3.92;;
24279;SDS011;12395;42.808;23.408;2023-06-10T04:44:42;6.15;;;3.70;;
24279;SDS011;12395;42.808;23.408;2023-06-10T04:47:08;6.50;;;3.53;;
24279;SDS011;12395;42.808;23.408;2023-06-10T04:49:34;7.80;;;4.10;;
24279;SDS011;12395;42.808;23.408;2023-06-10T04:52:00;7.00;;;4.22;;
24279;SDS011;12395;42.808;23.408;2023-06-10T04:54:25;7.88;;;4.78;;
24279;SDS011;12395;42.808;23.408;2023-06-10T04:56:51;6.50;;;4.47;;
24279;SDS011;12395;42.808;23.408;2023-06-10T04:59:16;7.13;;;3.90;;
24279;SDS011;12395;42.808;23.408;2023-06-10T05:01:42;7.07;;;4.93;;
24279;SDS011;12395;42.808;23.408;2023-06-10T05:04:08;9.55;;;5.75;;
24279;SDS011;12395;42.808;23.408;2023-06-10T05:06:33;8.70;;;5.88;;
24279;SDS011;12395;42.808;23.408;2023-06-10T05:09:00;10.88;;;6.07;;
24279;SDS011;12395;42.808;23.408;2023-06-10T05:11:26;10.90;;;6.95;;
24279;SDS011;12395;42.808;23.408;2023-06-10T05:13:51;10.05;;;6.95;;
24279;SDS011;12395;42.808;23.408;2023-06-10T05:16:16;14.40;;;8.48;;
24279;SDS011;12395;42.808;23.408;2023-06-10T05:18:42;14.15;;;9.27;;
24279;SDS011;12395;42.808;23.408;2023-06-10T05:21:07;12.70;;;8.40;;
24279;SDS011;12395;42.808;23.408;2023-06-10T05:23:32;12.65;;;8.50;;
24279;SDS011;12395;42.808;23.408;2023-06-10T05:25:58;11.88;;;8.15;;
24279;SDS011;12395;42.808;23.408;2023-06-10T05:28:24;11.80;;;8.82;;
24279;SDS011;12395;42.808;23.408;2023-06-10T05:30:50;11.57;;;8.32;;
24279;SDS011;12395;42.808;23.408;2023-06-10T05:33:16;12.25;;;8.63;;
24279;SDS011;12395;42.808;23.408;2023-06-10T05:35:41;13.15;;;8.52;;
24279;SDS011;12395;42.808;23.408;2023-06-10T05:38:07;12.13;;;7.95;;
24279;SDS011;12395;42.808;23.408;2023-06-10T05:40:32;14.15;;;8.38;;
24279;SDS011;12395;42.808;23.408;2023-06-10T05:42:57;14.10;;;8.00;;
24279;SDS011;12395;42.808;23.408;2023-06-10T05:45:23;11.82;;;7.72;;
24279;SDS011;12395;42.808;23.408;2023-06-10T05:47:48;12.43;;;8.23;;
24279;SDS011;12395;42.808;23.408;2023-06-10T05:50:13;14.05;;;8.50;;
24279;SDS011;12395;42.808;23.408;2023-06-10T05:52:39;11.43;;;8.25;;
24279;SDS011;12395;42.808;23.408;2023-06-10T05:55:07;11.77;;;8.05;;
24279;SDS011;12395;42.808;23.408;2023-06-10T05:57:33;13.13;;;8.50;;
24279;SDS011;12395;42.808;23.408;2023-06-10T05:59:59;11.95;;;7.93;;
24279;SDS011;12395;42.808;23.408;2023-06-10T06:02:24;11.77;;;7.80;;
24279;SDS011;12395;42.808;23.408;2023-06-10T06:04:50;9.43;;;7.20;;
24279;SDS011;12395;42.808;23.408;2023-06-10T06:07:15;10.70;;;7.80;;
24279;SDS011;12395;42.808;23.408;2023-06-10T06:09:41;13.50;;;8.30;;
24279;SDS011;12395;42.808;23.408;2023-06-10T06:12:07;9.77;;;7.75;;
24279;SDS011;12395;42.808;23.408;2023-06-10T06:14:36;9.88;;;7.43;;
24279;SDS011;12395;42.808;23.408;2023-06-10T06:17:02;10.32;;;6.95;;
24279;SDS011;12395;42.808;23.408;2023-06-10T06:19:28;10.65;;;6.88;;
24279;SDS011;12395;42.808;23.408;2023-06-10T06:21:53;11.07;;;7.60;;
24279;SDS011;12395;42.808;23.408;2023-06-10T06:24:18;11.73;;;7.88;;
24279;SDS011;12395;42.808;23.408;2023-06-10T06:26:44;10.55;;;7.78;;
24279;SDS011;12395;42.808;23.408;2023-06-10T06:29:10;12.05;;;7.32;;
24279;SDS011;12395;42.808;23.408;2023-06-10T06:31:35;11.07;;;7.28;;
24279;SDS011;12395;42.808;23.408;2023-06-10T06:34:01;10.98;;;6.90;;
24279;SDS011;12395;42.808;23.408;2023-06-10T06:36:27;9.63;;;6.82;;
24279;SDS011;12395;42.808;23.408;2023-06-10T06:38:52;11.13;;;7.45;;
24279;SDS011;12395;42.808;23.408;2023-06-10T06:41:17;10.80;;;6.95;;
24279;SDS011;12395;42.808;23.408;2023-06-10T06:43:43;9.15;;;6.80;;
24279;SDS011;12395;42.808;23.408;2023-06-10T06:46:08;11.13;;;6.55;;
24279;SDS011;12395;42.808;23.408;2023-06-10T06:48:34;10.15;;;6.60;;
24279;SDS011;12395;42.808;23.408;2023-06-10T06:50:59;9.85;;;6.78;;
24279;SDS011;12395;42.808;23.408;2023-06-10T06:53:28;11.23;;;6.70;;
24279;SDS011;12395;42.808;23.408;2023-06-10T06:55:53;10.02;;;6.93;;
24279;SDS011;12395;42.808;23.408;2023-06-10T06:58:19;10.35;;;6.47;;
24279;SDS011;12395;42.808;23.408;2023-06-10T07:00:44;10.63;;;6.70;;
24279;SDS011;12395;42.808;23.408;2023-06-10T07:03:09;9.23;;;5.60;;
24279;SDS011;12395;42.808;23.408;2023-06-10T07:05:35;9.48;;;6.07;;
24279;SDS011;12395;42.808;23.408;2023-06-10T07:08:00;8.40;;;6.38;;
24279;SDS011;12395;42.808;23.408;2023-06-10T07:10:26;8.93;;;6.07;;
24279;SDS011;12395;42.808;23.408;2023-06-10T07:12:52;10.95;;;7.07;;
24279;SDS011;12395;42.808;23.408;2023-06-10T07:15:17;9.65;;;6.40;;
24279;SDS011;12395;42.808;23.408;2023-06-10T07:17:43;9.88;;;6.10;;
24279;SDS011;12395;42.808;23.408;2023-06-10T07:20:09;10.30;;;6.88;;
24279;SDS011;12395;42.808;23.408;2023-06-10T07:22:35;12.02;;;7.32;;
24279;SDS011;12395;42.808;23.408;2023-06-10T07:25:00;13.73;;;7.90;;
24279;SDS011;12395;42.808;23.408;2023-06-10T07:27:26;9.68;;;5.28;;
24279;SDS011;12395;42.808;23.408;2023-06-10T07:29:51;10.73;;;5.88;;
24279;SDS011;12395;42.808;23.408;2023-06-10T07:32:17;6.90;;;4.60;;
24279;SDS011;12395;42.808;23.408;2023-06-10T07:34:42;7.57;;;4.28;;
24279;SDS011;12395;42.808;23.408;2023-06-10T07:37:08;7.97;;;4.05;;
24279;SDS011;12395;42.808;23.408;2023-06-10T07:39:34;4.85;;;3.70;;
24279;SDS011;12395;42.808;23.408;2023-06-10T07:41:59;6.65;;;3.72;;
24279;SDS011;12395;42.808;23.408;2023-06-10T07:44:25;5.50;;;3.25;;
24279;SDS011;12395;42.808;23.408;2023-06-10T07:46:50;5.53;;;4.10;;
24279;SDS011;12395;42.808;23.408;2023-06-10T07:49:16;5.75;;;3.90;;
24279;SDS011;12395;42.808;23.408;2023-06-10T07:51:41;7.32;;;4.70;;
24279;SDS011;12395;42.808;23.408;2023-06-10T07:54:07;7.63;;;4.68;;
24279;SDS011;12395;42.808;23.408;2023-06-10T07:56:32;6.80;;;4.00;;
24279;SDS011;12395;42.808;23.408;2023-06-10T07:58:58;5.72;;;3.85;;
24279;SDS011;12395;42.808;23.408;2023-06-10T08:01:23;7.07;;;4.43;;
24279;SDS011;12395;42.808;23.408;2023-06-10T08:03:49;6.95;;;4.97;;
24279;SDS011;12395;42.808;23.408;2023-06-10T08:06:14;7.63;;;4.80;;
24279;SDS011;12395;42.808;23.408;2023-06-10T08:08:42;5.38;;;3.90;;
24279;SDS011;12395;42.808;23.408;2023-06-10T08:11:08;6.63;;;4.28;;
24279;SDS011;12395;42.808;23.408;2023-06-10T08:13:35;10.32;;;5.20;;
24279;SDS011;12395;42.808;23.408;2023-06-10T08:16:01;8.88;;;5.20;;
24279;SDS011;12395;42.808;23.408;2023-06-10T08:18:26;7.60;;;4.80;;
24279;SDS011;12395;42.808;23.408;2023-06-10T08:20:51;7.35;;;3.88;;
24279;SDS011;12395;42.808;23.408;2023-06-10T08:23:17;6.97;;;4.10;;
24279;SDS011;12395;42.808;23.408;2023-06-10T08:25:42;6.50;;;4.20;;
24279;SDS011;12395;42.808;23.408;2023-06-10T08:28:08;6.78;;;4.15;;
24279;SDS011;12395;42.808;23.408;2023-06-10T08:30:33;7.32;;;4.20;;
24279;SDS011;12395;42.808;23.408;2023-06-10T08:32:59;6.90;;;4.05;;
24279;SDS011;12395;42.808;23.408;2023-06-10T08:35:25;6.32;;;3.72;;
24279;SDS011;12395;42.808;23.408;2023-06-10T08:37:50;4.55;;;3.15;;
24279;SDS011;12395;42.808;23.408;2023-06-10T08:40:15;5.43;;;3.40;;
24279;SDS011;12395;42.808;23.408;2023-06-10T08:43:26;5.60;;;3.60;;
24279;SDS011;12395;42.808;23.408;2023-06-10T08:45:36;5.97;;;3.42;;
24279;SDS011;12395;42.808;23.408;2023-06-10T08:48:05;6.60;;;3.80;;
24279;SDS011;12395;42.808;23.408;2023-06-10T08:50:37;6.28;;;3.70;;
24279;SDS011;12395;42.808;23.408;2023-06-10T08:53:06;7.50;;;3.92;;
24279;SDS011;12395;42.808;23.408;2023-06-10T08:55:33;5.68;;;3.40;;
24279;SDS011;12395;42.808;23.408;2023-06-10T08:58:02;5.35;;;3.40;;
24279;SDS011;12395;42.808;23.408;2023-06-10T09:00:29;7.32;;;3.50;;
24279;SDS011;12395;42.808;23.408;2023-06-10T09:02:56;5.70;;;3.40;;
24279;SDS011;12395;42.808;23.408;2023-06-10T09:07:48;4.55;;;3.33;;
24279;SDS011;12395;42.808;23.408;2023-06-10T09:12:41;5.78;;;3.13;;
24279;SDS011;12395;42.808;23.408;2023-06-10T09:15:07;5.65;;;2.90;;
24279;SDS011;12395;42.808;23.408;2023-06-10T09:17:33;5.32;;;3.40;;
24279;SDS011;12395;42.808;23.408;2023-06-10T09:20:01;5.53;;;3.20;;
24279;SDS011;12395;42.808;23.408;2023-06-10T09:22:27;6.13;;;3.40;;
24279;SDS011;12395;42.808;23.408;2023-06-10T09:25:03;4.10;;;3.05;;
24279;SDS011;12395;42.808;23.408;2023-06-10T09:27:34;4.63;;;2.95;;
24279;SDS011;12395;42.808;23.408;2023-06-10T09:30:10;5.65;;;3.10;;
24279;SDS011;12395;42.808;23.408;2023-06-10T09:35:13;3.90;;;2.70;;
24279;SDS011;12395;42.808;23.408;2023-06-10T09:37:39;4.45;;;2.80;;
24279;SDS011;12395;42.808;23.408;2023-06-10T09:40:06;4.28;;;3.20;;
24279;SDS011;12395;42.808;23.408;2023-06-10T09:42:33;6.20;;;3.55;;
24279;SDS011;12395;42.808;23.408;2023-06-10T09:45:00;7.30;;;3.42;;
24279;SDS011;12395;42.808;23.408;2023-06-10T09:47:26;7.45;;;3.85;;
24279;SDS011;12395;42.808;23.408;2023-06-10T09:49:51;7.00;;;3.80;;
24279;SDS011;12395;42.808;23.408;2023-06-10T09:52:23;4.72;;;3.53;;
24279;SDS011;12395;42.808;23.408;2023-06-10T09:54:53;6.40;;;3.88;;
24279;SDS011;12395;42.808;23.408;2023-06-10T09:57:23;6.00;;;3.22;;
24279;SDS011;12395;42.808;23.408;2023-06-10T09:59:52;5.15;;;3.25;;
24279;SDS011;12395;42.808;23.408;2023-06-10T10:02:18;5.30;;;3.25;;
24279;SDS011;12395;42.808;23.408;2023-06-10T10:04:44;6.10;;;3.42;;
24279;SDS011;12395;42.808;23.408;2023-06-10T10:07:10;7.50;;;3.47;;
24279;SDS011;12395;42.808;23.408;2023-06-10T10:09:39;4.43;;;2.90;;
24279;SDS011;12395;42.808;23.408;2023-06-10T10:12:08;3.95;;;2.80;;
24279;SDS011;12395;42.808;23.408;2023-06-10T10:14:36;5.95;;;3.17;;
24279;SDS011;12395;42.808;23.408;2023-06-10T10:17:04;3.92;;;2.38;;
24279;SDS011;12395;42.808;23.408;2023-06-10T10:19:35;3.30;;;2.10;;
24279;SDS011;12395;42.808;23.408;2023-06-10T10:22:07;4.40;;;2.45;;
24279;SDS011;12395;42.808;23.408;2023-06-10T10:24:42;3.38;;;2.50;;
24279;SDS011;12395;42.808;23.408;2023-06-10T10:27:18;3.10;;;2.28;;
24279;SDS011;12395;42.808;23.408;2023-06-10T10:29:47;6.63;;;2.92;;
24279;SDS011;12395;42.808;23.408;2023-06-10T10:32:16;3.65;;;2.15;;
24279;SDS011;12395;42.808;23.408;2023-06-10T10:37:44;3.00;;;2.22;;
24279;SDS011;12395;42.808;23.408;2023-06-10T10:40:10;3.95;;;2.40;;
24279;SDS011;12395;42.808;23.408;2023-06-10T10:42:36;6.60;;;2.50;;
24279;SDS011;12395;42.808;23.408;2023-06-10T10:45:02;4.30;;;2.20;;
24279;SDS011;12395;42.808;23.408;2023-06-10T10:47:29;3.95;;;2.53;;
24279;SDS011;12395;42.808;23.408;2023-06-10T10:49:56;6.20;;;2.60;;
24279;SDS011;12395;42.808;23.408;2023-06-10T10:52:24;4.68;;;2.38;;
24279;SDS011;12395;42.808;23.408;2023-06-10T10:54:50;5.27;;;2.60;;
24279;SDS011;12395;42.808;23.408;2023-06-10T10:57:19;4.68;;;2.90;;
24279;SDS011;12395;42.808;23.408;2023-06-10T10:59:55;5.50;;;2.40;;
24279;SDS011;12395;42.808;23.408;2023-06-10T11:02:35;3.80;;;2.55;;
24279;SDS011;12395;42.808;23.408;2023-06-10T11:05:15;3.63;;;2.45;;
24279;SDS011;12395;42.808;23.408;2023-06-10T11:07:41;4.35;;;2.60;;
24279;SDS011;12395;42.808;23.408;2023-06-10T11:10:17;3.50;;;2.30;;
24279;SDS011;12395;42.808;23.408;2023-06-10T11:12:54;5.10;;;2.57;;
24279;SDS011;12395;42.808;23.408;2023-06-10T11:15:27;3.10;;;2.33;;
24279;SDS011;12395;42.808;23.408;2023-06-10T11:18:06;3.67;;;2.53;;
24279;SDS011;12395;42.808;23.408;2023-06-10T11:23:30;5.55;;;2.67;;
24279;SDS011;12395;42.808;23.408;2023-06-10T11:26:13;4.40;;;2.88;;
24279;SDS011;12395;42.808;23.408;2023-06-10T11:28:39;4.55;;;2.70;;
24279;SDS011;12395;42.808;23.408;2023-06-10T11:31:26;4.97;;;2.67;;
24279;SDS011;12395;42.808;23.408;2023-06-10T11:34:15;4.32;;;2.70;;
24279;SDS011;12395;42.808;23.408;2023-06-10T11:36:41;4.03;;;2.80;;
24279;SDS011;12395;42.808;23.408;2023-06-10T11:39:10;4.32;;;2.80;;
24279;SDS011;12395;42.808;23.408;2023-06-10T11:41:37;4.55;;;2.45;;
24279;SDS011;12395;42.808;23.408;2023-06-10T11:44:04;3.83;;;2.35;;
24279;SDS011;12395;42.808;23.408;2023-06-10T11:46:30;4.15;;;2.65;;
24279;SDS011;12395;42.808;23.408;2023-06-10T11:48:56;4.55;;;2.70;;
24279;SDS011;12395;42.808;23.408;2023-06-10T11:51:27;4.22;;;2.75;;
24279;SDS011;12395;42.808;23.408;2023-06-10T11:53:54;4.72;;;2.65;;
24279;SDS011;12395;42.808;23.408;2023-06-10T11:56:20;4.45;;;2.60;;
24279;SDS011;12395;42.808;23.408;2023-06-10T11:58:54;4.38;;;2.63;;
24279;SDS011;12395;42.808;23.408;2023-06-10T12:01:25;4.07;;;2.38;;
24279;SDS011;12395;42.808;23.408;2023-06-10T12:04:02;3.92;;;2.70;;
24279;SDS011;12395;42.808;23.408;2023-06-10T12:09:18;4.28;;;2.70;;
24279;SDS011;12395;42.808;23.408;2023-06-10T12:11:45;4.18;;;2.63;;
24279;SDS011;12395;42.808;23.408;2023-06-10T12:14:15;5.45;;;2.67;;
24279;SDS011;12395;42.808;23.408;2023-06-10T12:16:41;4.28;;;2.85;;
24279;SDS011;12395;42.808;23.408;2023-06-10T12:19:13;3.72;;;2.58;;
24279;SDS011;12395;42.808;23.408;2023-06-10T12:21:38;4.72;;;3.10;;
24279;SDS011;12395;42.808;23.408;2023-06-10T12:26:33;3.47;;;2.70;;
24279;SDS011;12395;42.808;23.408;2023-06-10T12:29:01;4.03;;;2.60;;
24279;SDS011;12395;42.808;23.408;2023-06-10T12:34:40;6.45;;;3.15;;
24279;SDS011;12395;42.808;23.408;2023-06-10T12:37:06;4.07;;;2.80;;
24279;SDS011;12395;42.808;23.408;2023-06-10T12:39:38;6.25;;;3.10;;
24279;SDS011;12395;42.808;23.408;2023-06-10T12:42:04;3.85;;;2.70;;
24279;SDS011;12395;42.808;23.408;2023-06-10T12:44:34;4.93;;;2.75;;
24279;SDS011;12395;42.808;23.408;2023-06-10T12:47:01;4.18;;;2.70;;
24279;SDS011;12395;42.808;23.408;2023-06-10T12:49:33;4.03;;;2.75;;
24279;SDS011;12395;42.808;23.408;2023-06-10T12:51:58;4.60;;;2.78;;
24279;SDS011;12395;42.808;23.408;2023-06-10T12:54:23;5.78;;;3.03;;
24279;SDS011;12395;42.808;23.408;2023-06-10T12:56:49;3.90;;;2.97;;
24279;SDS011;12395;42.808;23.408;2023-06-10T12:59:15;6.28;;;2.70;;
24279;SDS011;12395;42.808;23.408;2023-06-10T13:01:41;6.20;;;3.35;;
24279;SDS011;12395;42.808;23.408;2023-06-10T13:04:07;4.82;;;2.97;;
24279;SDS011;12395;42.808;23.408;2023-06-10T13:06:32;3.75;;;2.78;;
24279;SDS011;12395;42.808;23.408;2023-06-10T13:09:01;3.95;;;2.97;;
24279;SDS011;12395;42.808;23.408;2023-06-10T13:11:27;5.07;;;3.03;;
24279;SDS011;12395;42.808;23.408;2023-06-10T13:13:53;4.28;;;2.88;;
24279;SDS011;12395;42.808;23.408;2023-06-10T13:16:18;4.20;;;2.60;;
24279;SDS011;12395;42.808;23.408;2023-06-10T13:18:43;3.95;;;2.72;;
24279;SDS011;12395;42.808;23.408;2023-06-10T13:21:09;5.18;;;2.83;;
24279;SDS011;12395;42.808;23.408;2023-06-10T13:23:34;4.28;;;2.85;;
24279;SDS011;12395;42.808;23.408;2023-06-10T13:26:00;4.38;;;2.90;;
24279;SDS011;12395;42.808;23.408;2023-06-10T13:28:27;4.80;;;2.70;;
24279;SDS011;12395;42.808;23.408;2023-06-10T13:30:52;5.20;;;2.90;;
24279;SDS011;12395;42.808;23.408;2023-06-10T13:33:18;5.00;;;3.03;;
24279;SDS011;12395;42.808;23.408;2023-06-10T13:35:43;3.65;;;2.65;;
24279;SDS011;12395;42.808;23.408;2023-06-10T13:38:09;4.45;;;2.78;;
24279;SDS011;12395;42.808;23.408;2023-06-10T13:40:34;4.18;;;2.78;;
24279;SDS011;12395;42.808;23.408;2023-06-10T13:42:59;4.97;;;3.05;;
24279;SDS011;12395;42.808;23.408;2023-06-10T13:45:26;6.25;;;2.92;;
24279;SDS011;12395;42.808;23.408;2023-06-10T13:47:51;5.03;;;2.80;;
24279;SDS011;12395;42.808;23.408;2023-06-10T13:50:16;9.77;;;4.30;;
24279;SDS011;12395;42.808;23.408;2023-06-10T13:52:42;6.10;;;3.58;;
24279;SDS011;12395;42.808;23.408;2023-06-10T13:55:07;6.70;;;3.72;;
24279;SDS011;12395;42.808;23.408;2023-06-10T13:57:33;5.70;;;3.55;;
24279;SDS011;12395;42.808;23.408;2023-06-10T13:59:59;7.05;;;3.67;;
24279;SDS011;12395;42.808;23.408;2023-06-10T14:02:24;6.35;;;3.53;;
24279;SDS011;12395;42.808;23.408;2023-06-10T14:04:50;6.30;;;3.60;;
24279;SDS011;12395;42.808;23.408;2023-06-10T14:07:15;8.10;;;3.63;;
24279;SDS011;12395;42.808;23.408;2023-06-10T14:09:41;8.25;;;3.65;;
24279;SDS011;12395;42.808;23.408;2023-06-10T14:12:07;6.35;;;3.47;;
24279;SDS011;12395;42.808;23.408;2023-06-10T14:14:33;6.18;;;3.50;;
24279;SDS011;12395;42.808;23.408;2023-06-10T14:16:58;6.03;;;3.60;;
24279;SDS011;12395;42.808;23.408;2023-06-10T14:19:24;5.72;;;3.40;;
24279;SDS011;12395;42.808;23.408;2023-06-10T14:21:49;6.47;;;3.30;;
24279;SDS011;12395;42.808;23.408;2023-06-10T14:24:15;7.40;;;3.50;;
24279;SDS011;12395;42.808;23.408;2023-06-10T14:26:40;6.78;;;3.40;;
24279;SDS011;12395;42.808;23.408;2023-06-10T14:29:06;5.53;;;3.40;;
24279;SDS011;12395;42.808;23.408;2023-06-10T14:31:32;6.10;;;3.60;;
24279;SDS011;12395;42.808;23.408;2023-06-10T14:33:57;5.00;;;3.50;;
24279;SDS011;12395;42.808;23.408;2023-06-10T14:36:23;6.53;;;3.70;;
24279;SDS011;12395;42.808;23.408;2023-06-10T14:38:48;6.07;;;3.58;;
24279;SDS011;12395;42.808;23.408;2023-06-10T14:41:14;12.45;;;3.95;;
24279;SDS011;12395;42.808;23.408;2023-06-10T14:43:40;6.82;;;3.70;;
24279;SDS011;12395;42.808;23.408;2023-06-10T14:46:05;9.05;;;3.55;;
24279;SDS011;12395;42.808;23.408;2023-06-10T14:48:31;6.88;;;3.75;;
24279;SDS011;12395;42.808;23.408;2023-06-10T14:50:56;4.60;;;3.53;;
24279;SDS011;12395;42.808;23.408;2023-06-10T14:53:21;5.65;;;3.88;;